Tasman — ZDKI2 — position and weather

sailwx.info

Track history (hours):
 
Tides and Currents Weather Stations Pressure Air Temp Water Temp Dewpoint Dewpoint Depression Visibility Wind Speed Wind Dir Waves Ship Positions

Tasman

Last reported at 2017-Jun-24 03:23 UTC. Time now 2017-Jun-24 05:22 UTC.
Position N 58°55' E 004°47'.

Length 90 m; draft 4 m.

Type: Ship. MMSI: 23617000.

Date/timePositionNaut miles runAvg speedWind from/ knotsBaromVisibWave heightAir tempDewpointWater temp
2017-Jun-24 03:23N 58°55' E 004°47'513.6
2017-Jun-24 03:00N 58°49' E 004°49'713.6
2017-Jun-24 02:29N 58°42' E 004°52'713.8
2017-Jun-24 02:00N 58°36' E 004°53'813.7
2017-Jun-24 01:24N 58°28' E 004°56'31112.5
2017-Jun-23 00:31N 53°24' E 006°57'015.1
2017-Jun-23 00:30N 53°24' E 006°57'612.9
2017-Jun-23 00:00N 53°20' E 007°05'4 7.7
2017-Jun-22 23:30N 53°20' E 007°11'0 0.2
2017-Jun-22 21:43N 53°20' E 007°12'0 0.0
2017-Jun-22 21:22N 53°20' E 007°12'0 0.0
2017-Jun-22 20:58N 53°20' E 007°12'0 0.0
2017-Jun-22 20:22N 53°20' E 007°12'0 0.0
2017-Jun-22 19:58N 53°20' E 007°12'0 0.0
2017-Jun-22 19:21N 53°20' E 007°12'0 0.0
2017-Jun-22 14:40N 53°20' E 007°12'0 0.0
2017-Jun-21 17:53N 53°20' E 007°12'1 1.2
2017-Jun-21 17:02N 53°20' E 007°10'0 4.7
2017-Jun-21 17:00N 53°20' E 007°10'4 8.8
2017-Jun-21 16:30N 53°19' E 007°03'510.8
2017-Jun-21 16:00N 53°24' E 006°57'714.1
2017-Jun-21 15:30N 53°29' E 006°50'42 8.4
2017-Jun-21 10:32N 53°32' E 005°39'110.0
2017-Jun-21 10:25N 53°32' E 005°38'6 9.9
2017-Jun-21 09:50N 53°31' E 005°28'310.0
2017-Jun-21 09:30N 53°31' E 005°22'510.1
2017-Jun-21 09:00N 53°30' E 005°14'510.0
2017-Jun-21 08:30N 53°29' E 005°06'510.4
2017-Jun-21 08:00N 53°27' E 004°58'610.4
2017-Jun-21 07:24N 53°24' E 004°48'510.0
2017-Jun-21 06:52N 53°21' E 004°41'410.7
2017-Jun-21 06:29N 53°17' E 004°38'510.9
2017-Jun-21 05:59N 53°12' E 004°33'511.1
2017-Jun-21 05:30N 53°08' E 004°29'611.1
2017-Jun-21 05:00N 53°03' E 004°24'611.1
2017-Jun-21 04:30N 52°58' E 004°19'611.7
2017-Jun-21 04:00N 52°53' E 004°14'611.5
2017-Jun-21 03:30N 52°48' E 004°09'611.4
2017-Jun-21 03:00N 52°44' E 004°03'611.5
2017-Jun-21 02:30N 52°40' E 003°57'611.6
2017-Jun-21 02:00N 52°36' E 003°50'611.7
2017-Jun-21 01:30N 52°31' E 003°44'611.9
2017-Jun-21 00:59N 52°27' E 003°37'611.9
2017-Jun-21 00:28N 52°22' E 003°30'612.2
2017-Jun-21 00:00N 52°18' E 003°23'812.4
2017-Jun-20 23:20N 52°12' E 003°14'412.6
2017-Jun-20 23:00N 52°09' E 003°09'712.6
2017-Jun-20 22:27N 52°04' E 003°02'712.5
2017-Jun-20 21:56N 51°59' E 002°55'1512.2
2017-Jun-20 20:40N 51°47' E 002°40'211.8
2017-Jun-20 20:27N 51°45' E 002°37'611.7
2017-Jun-20 19:55N 51°40' E 002°31'511.5
2017-Jun-20 19:30N 51°36' E 002°26'611.2
2017-Jun-20 19:00N 51°32' E 002°21'510.9
2017-Jun-20 18:30N 51°27' E 002°15'510.6
2017-Jun-20 18:00N 51°23' E 002°11'510.2
2017-Jun-20 17:30N 51°19' E 002°07'5 9.9
2017-Jun-20 17:00N 51°14' E 002°02'5 9.3
2017-Jun-20 16:30N 51°11' E 001°57'5 9.1
2017-Jun-20 16:00N 51°08' E 001°52'4 8.8
2017-Jun-20 15:30N 51°05' E 001°46'4 8.8
2017-Jun-20 15:00N 51°02' E 001°41'4 8.6
2017-Jun-20 14:30N 50°59' E 001°37'9 8.9
2017-Jun-20 13:30N 50°52' E 001°28'4210.7
2017-Jun-20 09:35N 50°28' E 000°34'111.7
2017-Jun-20 09:30N 50°28' E 000°32'611.7
2017-Jun-20 09:00N 50°26' E 000°23'611.9
2017-Jun-20 08:29N 50°24' E 000°14'612.1
2017-Jun-20 08:00N 50°22' E 000°05'612.4
2017-Jun-20 07:30N 50°20' W 000°04'612.5
2017-Jun-20 07:00N 50°18' W 000°13'612.9
2017-Jun-20 06:30N 50°16' W 000°23'713.4
2017-Jun-20 06:00N 50°14' W 000°33'713.9
2017-Jun-20 05:31N 50°12' W 000°43'714.3
2017-Jun-20 05:00N 50°10' W 000°54'814.6
2017-Jun-20 04:27N 50°07' W 001°06'714.9
2017-Jun-20 04:00N 50°06' W 001°16'815.0
2017-Jun-20 03:30N 50°03' W 001°27'715.1
2017-Jun-20 03:00N 50°01' W 001°38'814.8
2017-Jun-20 02:30N 49°60' W 001°49'714.4
2017-Jun-20 02:00N 49°58' W 002°00'2812.9
2017-Jun-19 23:48N 49°49' W 002°42'311.5
2017-Jun-19 23:30N 49°48' W 002°47'911.4
2017-Jun-19 22:41N 49°44' W 003°01'511.3
2017-Jun-19 22:16N 49°43' W 003°07'811.3
2017-Jun-19 21:35N 49°39' W 003°18'111.2
2017-Jun-19 21:28N 49°38' W 003°20'6711.5
2017-Jun-19 15:38N 49°04' W 004°48'311.9
2017-Jun-19 15:24N 49°02' W 004°52'511.9
2017-Jun-19 15:00N 48°60' W 004°58'612.0
2017-Jun-19 14:30N 48°57' W 005°06'1212.3
2017-Jun-19 13:30N 48°50' W 005°22'612.6
2017-Jun-19 13:00N 48°47' W 005°30'612.4
2017-Jun-19 12:30N 48°43' W 005°37'712.9
2017-Jun-19 11:59N 48°37' W 005°42'43710.9
2017-Jun-17 19:50N 41°41' W 008°51'0 0.0
2017-Jun-17 19:15N 41°41' W 008°51'0 0.0
2017-Jun-17 18:50N 41°41' W 008°51'0 0.0
2017-Jun-17 18:30N 41°41' W 008°51'0 0.0
2017-Jun-17 17:46N 41°41' W 008°51'0 0.0
2017-Jun-17 17:30N 41°41' W 008°51'0 0.0
2017-Jun-17 17:00N 41°41' W 008°51'0 0.0
2017-Jun-17 16:28N 41°41' W 008°51'0 0.0
2017-Jun-17 16:00N 41°41' W 008°51'0 0.0
2017-Jun-17 15:30N 41°41' W 008°51'0 0.0
2017-Jun-17 15:00N 41°41' W 008°51'0 0.0
2017-Jun-17 13:51N 41°41' W 008°51'0 0.0
2017-Jun-17 13:27N 41°41' W 008°51'0 0.0
2017-Jun-17 12:50N 41°41' W 008°51'0 0.0
2017-Jun-17 12:28N 41°41' W 008°51'0 0.0
2017-Jun-17 12:00N 41°41' W 008°51'  
2017-Jun-14 07:30N 48°37' W 005°58'711.9
2017-Jun-14 06:54N 48°43' W 005°53'511.6
2017-Jun-14 06:30N 48°47' W 005°49'611.3
2017-Jun-14 05:59N 48°52' W 005°45'611.0
2017-Jun-14 05:26N 48°56' W 005°38'611.1
2017-Jun-14 04:55N 48°59' W 005°31'611.3
2017-Jun-14 04:23N 49°02' W 005°23'  
Track history (hours):
 
Tides and Currents Weather Stations Pressure Air Temp Water Temp Dewpoint Dewpoint Depression Visibility Wind Speed Wind Dir Waves Ship Positions

Tasman

Last reported at 2017-Jun-24 03:23 UTC. Time now 2017-Jun-24 05:22 UTC.
Position N 58°55' E 004°47'.

Length 90 m; draft 4 m.

Type: Ship. MMSI: 23617000.

Date/timePositionNaut miles runAvg speedWind from/ knotsBaromVisibWave heightAir tempDewpointWater temp
2017-Jun-24 03:23N 58°55' E 004°47'513.6
2017-Jun-24 03:00N 58°49' E 004°49'713.6
2017-Jun-24 02:29N 58°42' E 004°52'713.8
2017-Jun-24 02:00N 58°36' E 004°53'813.7
2017-Jun-24 01:24N 58°28' E 004°56'31112.5
2017-Jun-23 00:31N 53°24' E 006°57'015.1
2017-Jun-23 00:30N 53°24' E 006°57'612.9
2017-Jun-23 00:00N 53°20' E 007°05'4 7.7
2017-Jun-22 23:30N 53°20' E 007°11'0 0.2
2017-Jun-22 21:43N 53°20' E 007°12'0 0.0
2017-Jun-22 21:22N 53°20' E 007°12'0 0.0
2017-Jun-22 20:58N 53°20' E 007°12'0 0.0
2017-Jun-22 20:22N 53°20' E 007°12'0 0.0
2017-Jun-22 19:58N 53°20' E 007°12'0 0.0
2017-Jun-22 19:21N 53°20' E 007°12'0 0.0
2017-Jun-22 14:40N 53°20' E 007°12'0 0.0
2017-Jun-21 17:53N 53°20' E 007°12'1 1.2
2017-Jun-21 17:02N 53°20' E 007°10'0 4.7
2017-Jun-21 17:00N 53°20' E 007°10'4 8.8
2017-Jun-21 16:30N 53°19' E 007°03'510.8
2017-Jun-21 16:00N 53°24' E 006°57'714.1
2017-Jun-21 15:30N 53°29' E 006°50'42 8.4
2017-Jun-21 10:32N 53°32' E 005°39'110.0
2017-Jun-21 10:25N 53°32' E 005°38'6 9.9
2017-Jun-21 09:50N 53°31' E 005°28'310.0
2017-Jun-21 09:30N 53°31' E 005°22'510.1
2017-Jun-21 09:00N 53°30' E 005°14'510.0
2017-Jun-21 08:30N 53°29' E 005°06'510.4
2017-Jun-21 08:00N 53°27' E 004°58'610.4
2017-Jun-21 07:24N 53°24' E 004°48'510.0
2017-Jun-21 06:52N 53°21' E 004°41'410.7
2017-Jun-21 06:29N 53°17' E 004°38'510.9
2017-Jun-21 05:59N 53°12' E 004°33'511.1
2017-Jun-21 05:30N 53°08' E 004°29'611.1
2017-Jun-21 05:00N 53°03' E 004°24'611.1
2017-Jun-21 04:30N 52°58' E 004°19'611.7
2017-Jun-21 04:00N 52°53' E 004°14'611.5
2017-Jun-21 03:30N 52°48' E 004°09'611.4
2017-Jun-21 03:00N 52°44' E 004°03'611.5
2017-Jun-21 02:30N 52°40' E 003°57'611.6
2017-Jun-21 02:00N 52°36' E 003°50'611.7
2017-Jun-21 01:30N 52°31' E 003°44'611.9
2017-Jun-21 00:59N 52°27' E 003°37'611.9
2017-Jun-21 00:28N 52°22' E 003°30'612.2
2017-Jun-21 00:00N 52°18' E 003°23'812.4
2017-Jun-20 23:20N 52°12' E 003°14'412.6
2017-Jun-20 23:00N 52°09' E 003°09'712.6
2017-Jun-20 22:27N 52°04' E 003°02'712.5
2017-Jun-20 21:56N 51°59' E 002°55'1512.2
2017-Jun-20 20:40N 51°47' E 002°40'211.8
2017-Jun-20 20:27N 51°45' E 002°37'611.7
2017-Jun-20 19:55N 51°40' E 002°31'511.5
2017-Jun-20 19:30N 51°36' E 002°26'611.2
2017-Jun-20 19:00N 51°32' E 002°21'510.9
2017-Jun-20 18:30N 51°27' E 002°15'510.6
2017-Jun-20 18:00N 51°23' E 002°11'510.2
2017-Jun-20 17:30N 51°19' E 002°07'5 9.9
2017-Jun-20 17:00N 51°14' E 002°02'5 9.3
2017-Jun-20 16:30N 51°11' E 001°57'5 9.1
2017-Jun-20 16:00N 51°08' E 001°52'4 8.8
2017-Jun-20 15:30N 51°05' E 001°46'4 8.8
2017-Jun-20 15:00N 51°02' E 001°41'4 8.6
2017-Jun-20 14:30N 50°59' E 001°37'9 8.9
2017-Jun-20 13:30N 50°52' E 001°28'4210.7
2017-Jun-20 09:35N 50°28' E 000°34'111.7
2017-Jun-20 09:30N 50°28' E 000°32'611.7
2017-Jun-20 09:00N 50°26' E 000°23'611.9
2017-Jun-20 08:29N 50°24' E 000°14'612.1
2017-Jun-20 08:00N 50°22' E 000°05'612.4
2017-Jun-20 07:30N 50°20' W 000°04'612.5
2017-Jun-20 07:00N 50°18' W 000°13'612.9
2017-Jun-20 06:30N 50°16' W 000°23'713.4
2017-Jun-20 06:00N 50°14' W 000°33'713.9
2017-Jun-20 05:31N 50°12' W 000°43'714.3
2017-Jun-20 05:00N 50°10' W 000°54'814.6
2017-Jun-20 04:27N 50°07' W 001°06'714.9
2017-Jun-20 04:00N 50°06' W 001°16'815.0
2017-Jun-20 03:30N 50°03' W 001°27'715.1
2017-Jun-20 03:00N 50°01' W 001°38'814.8
2017-Jun-20 02:30N 49°60' W 001°49'714.4
2017-Jun-20 02:00N 49°58' W 002°00'2812.9
2017-Jun-19 23:48N 49°49' W 002°42'311.5
2017-Jun-19 23:30N 49°48' W 002°47'911.4
2017-Jun-19 22:41N 49°44' W 003°01'511.3
2017-Jun-19 22:16N 49°43' W 003°07'811.3
2017-Jun-19 21:35N 49°39' W 003°18'111.2
2017-Jun-19 21:28N 49°38' W 003°20'6711.5
2017-Jun-19 15:38N 49°04' W 004°48'311.9
2017-Jun-19 15:24N 49°02' W 004°52'511.9
2017-Jun-19 15:00N 48°60' W 004°58'612.0
2017-Jun-19 14:30N 48°57' W 005°06'1212.3
2017-Jun-19 13:30N 48°50' W 005°22'612.6
2017-Jun-19 13:00N 48°47' W 005°30'612.4
2017-Jun-19 12:30N 48°43' W 005°37'712.9
2017-Jun-19 11:59N 48°37' W 005°42'43710.9
2017-Jun-17 19:50N 41°41' W 008°51'0 0.0
2017-Jun-17 19:15N 41°41' W 008°51'0 0.0
2017-Jun-17 18:50N 41°41' W 008°51'0 0.0
2017-Jun-17 18:30N 41°41' W 008°51'0 0.0
2017-Jun-17 17:46N 41°41' W 008°51'0 0.0
2017-Jun-17 17:30N 41°41' W 008°51'0 0.0
2017-Jun-17 17:00N 41°41' W 008°51'0 0.0
2017-Jun-17 16:28N 41°41' W 008°51'0 0.0
2017-Jun-17 16:00N 41°41' W 008°51'0 0.0
2017-Jun-17 15:30N 41°41' W 008°51'0 0.0
2017-Jun-17 15:00N 41°41' W 008°51'0 0.0
2017-Jun-17 13:51N 41°41' W 008°51'0 0.0
2017-Jun-17 13:27N 41°41' W 008°51'0 0.0
2017-Jun-17 12:50N 41°41' W 008°51'0 0.0
2017-Jun-17 12:28N 41°41' W 008°51'0 0.0
2017-Jun-17 12:00N 41°41' W 008°51'  
2017-Jun-14 07:30N 48°37' W 005°58'711.9
2017-Jun-14 06:54N 48°43' W 005°53'511.6
2017-Jun-14 06:30N 48°47' W 005°49'611.3
2017-Jun-14 05:59N 48°52' W 005°45'611.0
2017-Jun-14 05:26N 48°56' W 005°38'611.1
2017-Jun-14 04:55N 48°59' W 005°31'611.3
2017-Jun-14 04:23N 49°02' W 005°23'  

Dump ship's entire track history